www.cux-wetter.de
Wetterdaten: Montag, 27.08.2007
Datum Zeit Temp. A. Feuchte A. Luftdruck Regen Wind Richtung Richtung Sonnenschein Solar Taupunkt Windchill Windben
27.08.2007 00:00 16,3 C 62 % 1022,5 hPa 0,0 l/m 26,6 km/h (4 Bft) NW 320 0 min 0 W/m 9,0 C 10,1 C 26,6 km/h (4 Bft)
27.08.2007 00:05 16,3 C 63 % 1022,5 hPa 0,0 l/m 24,6 km/h (4 Bft) N-NW 330 0 min 0 W/m 9,2 C 10,4 C 24,6 km/h (4 Bft)
27.08.2007 00:10 16,2 C 62 % 1022,5 hPa 0,0 l/m 26,2 km/h (4 Bft) N-NW 330 0 min 0 W/m 8,9 C 10,0 C 26,2 km/h (4 Bft)
27.08.2007 00:15 16,1 C 58 % 1022,5 hPa 0,0 l/m 30,8 km/h (5 Bft) NW 325 0 min 0 W/m 7,8 C 9,1 C 30,8 km/h (5 Bft)
27.08.2007 00:20 16,1 C 57 % 1022,5 hPa 0,0 l/m 24,6 km/h (4 Bft) NW 325 0 min 0 W/m 7,6 C 10,2 C 24,6 km/h (4 Bft)
27.08.2007 00:25 16,2 C 57 % 1022,5 hPa 0,0 l/m 22,6 km/h (4 Bft) NW 320 0 min 0 W/m 7,7 C 10,7 C 22,6 km/h (4 Bft)
27.08.2007 00:30 16,2 C 57 % 1022,5 hPa 0,0 l/m 23,7 km/h (4 Bft) NW 315 0 min 0 W/m 7,7 C 10,5 C 23,7 km/h (4 Bft)
27.08.2007 00:35 16,3 C 57 % 1022,5 hPa 0,0 l/m 28,3 km/h (5 Bft) NW 310 0 min 0 W/m 7,8 C 9,8 C 28,3 km/h (5 Bft)
27.08.2007 00:40 16,3 C 59 % 1022,5 hPa 0,0 l/m 22,3 km/h (4 Bft) NW 315 0 min 0 W/m 8,3 C 10,9 C 22,3 km/h (4 Bft)
27.08.2007 00:45 16,3 C 59 % 1022,5 hPa 0,0 l/m 28,2 km/h (5 Bft) NW 305 0 min 0 W/m 8,3 C 9,8 C 28,2 km/h (5 Bft)
27.08.2007 00:50 16,3 C 63 % 1022,5 hPa 0,0 l/m 28,5 km/h (5 Bft) NW 320 0 min 0 W/m 9,2 C 9,8 C 28,5 km/h (5 Bft)
27.08.2007 00:55 16,3 C 64 % 1021,5 hPa 0,0 l/m 28,1 km/h (5 Bft) NW 320 0 min 0 W/m 9,5 C 9,8 C 28,1 km/h (5 Bft)
27.08.2007 01:00 16,2 C 64 % 1021,5 hPa 0,0 l/m 16,0 km/h (3 Bft) N-NW 330 0 min 0 W/m 9,4 C 12,3 C 16,0 km/h (3 Bft)
27.08.2007 01:05 16,2 C 64 % 1021,5 hPa 0,0 l/m 16,0 km/h (3 Bft) N-NW 330 0 min 0 W/m 9,4 C 12,3 C 16,0 km/h (3 Bft)
27.08.2007 01:09 16,2 C 66 % 1021,5 hPa 0,0 l/m 19,6 km/h (3 Bft) NW 320 0 min 0 W/m 9,8 C 11,4 C 19,6 km/h (3 Bft)
27.08.2007 01:15 16,2 C 67 % 1021,5 hPa 0,0 l/m 29,6 km/h (5 Bft) NW 315 0 min 0 W/m 10,1 C 9,4 C 29,6 km/h (5 Bft)
27.08.2007 01:20 16,1 C 68 % 1021,5 hPa 0,0 l/m 27,0 km/h (5 Bft) NW 315 0 min 0 W/m 10,2 C 9,7 C 27,0 km/h (5 Bft)
27.08.2007 01:25 16,0 C 68 % 1021,5 hPa 0,0 l/m 26,8 km/h (4 Bft) N-NW 330 0 min 0 W/m 10,1 C 9,6 C 26,8 km/h (4 Bft)
27.08.2007 01:30 16,0 C 69 % 1021,5 hPa 0,0 l/m 20,6 km/h (4 Bft) NW 315 0 min 0 W/m 10,3 C 10,9 C 20,6 km/h (4 Bft)
27.08.2007 01:35 16,0 C 68 % 1021,5 hPa 0,0 l/m 27,4 km/h (5 Bft) N-NW 340 0 min 0 W/m 10,1 C 9,5 C 27,4 km/h (5 Bft)
27.08.2007 01:40 15,8 C 68 % 1021,5 hPa 0,0 l/m 19,3 km/h (3 Bft) NW 320 0 min 0 W/m 9,9 C 11,0 C 19,3 km/h (3 Bft)
27.08.2007 01:45 15,8 C 69 % 1021,5 hPa 0,0 l/m 23,8 km/h (4 Bft) NW 315 0 min 0 W/m 10,1 C 9,9 C 23,8 km/h (4 Bft)
27.08.2007 01:50 15,8 C 69 % 1021,5 hPa 0,0 l/m 25,7 km/h (4 Bft) NW 325 0 min 0 W/m 10,1 C 9,6 C 25,7 km/h (4 Bft)
27.08.2007 01:55 15,9 C 69 % 1021,5 hPa 0,0 l/m 26,8 km/h (4 Bft) NW 325 0 min 0 W/m 10,2 C 9,5 C 26,8 km/h (4 Bft)
27.08.2007 02:00 16,0 C 68 % 1021,5 hPa 0,0 l/m 25,0 km/h (4 Bft) NW 325 0 min 0 W/m 10,1 C 10,0 C 25,0 km/h (4 Bft)
27.08.2007 02:05 16,0 C 66 % 1021,5 hPa 0,0 l/m 24,7 km/h (4 Bft) NW 315 0 min 0 W/m 9,7 C 10,0 C 24,7 km/h (4 Bft)
27.08.2007 02:10 16,1 C 66 % 1021,5 hPa 0,0 l/m 28,1 km/h (5 Bft) NW 325 0 min 0 W/m 9,7 C 9,5 C 28,1 km/h (5 Bft)
27.08.2007 02:15 16,1 C 67 % 1021,5 hPa 0,0 l/m 24,7 km/h (4 Bft) N-NW 340 0 min 0 W/m 10,0 C 10,2 C 24,7 km/h (4 Bft)
27.08.2007 02:20 16,1 C 67 % 1021,5 hPa 0,0 l/m 29,8 km/h (5 Bft) NW 325 0 min 0 W/m 10,0 C 9,3 C 29,8 km/h (5 Bft)
27.08.2007 02:25 16,1 C 67 % 1021,5 hPa 0,0 l/m 19,1 km/h (3 Bft) NW 325 0 min 0 W/m 10,0 C 11,4 C 19,1 km/h (3 Bft)
27.08.2007 02:30 16,0 C 68 % 1021,5 hPa 0,0 l/m 28,9 km/h (5 Bft) NW 325 0 min 0 W/m 10,1 C 9,3 C 28,9 km/h (5 Bft)
27.08.2007 02:35 16,0 C 68 % 1021,5 hPa 0,0 l/m 28,5 km/h (5 Bft) N-NW 330 0 min 0 W/m 10,1 C 9,3 C 28,5 km/h (5 Bft)
27.08.2007 02:40 16,0 C 67 % 1021,5 hPa 0,0 l/m 25,7 km/h (4 Bft) N-NW 340 0 min 0 W/m 9,9 C 9,8 C 25,7 km/h (4 Bft)
27.08.2007 02:45 16,0 C 67 % 1021,5 hPa 0,0 l/m 31,1 km/h (5 Bft) N-NW 330 0 min 0 W/m 9,9 C 8,9 C 31,1 km/h (5 Bft)
27.08.2007 02:50 15,9 C 66 % 1021,5 hPa 0,0 l/m 27,0 km/h (5 Bft) NW 320 0 min 0 W/m 9,6 C 9,5 C 27,0 km/h (5 Bft)
27.08.2007 02:55 15,9 C 63 % 1021,5 hPa 0,0 l/m 28,8 km/h (5 Bft) N-NW 340 0 min 0 W/m 8,9 C 9,1 C 28,8 km/h (5 Bft)
27.08.2007 03:00 15,9 C 62 % 1021,5 hPa 0,0 l/m 26,5 km/h (4 Bft) NW 325 0 min 0 W/m 8,6 C 9,5 C 26,5 km/h (4 Bft)
27.08.2007 03:05 15,9 C 62 % 1021,5 hPa 0,0 l/m 30,8 km/h (5 Bft) NW 320 0 min 0 W/m 8,6 C 8,8 C 30,8 km/h (5 Bft)
27.08.2007 03:10 15,9 C 62 % 1021,5 hPa 0,0 l/m 27,7 km/h (5 Bft) NW 310 0 min 0 W/m 8,6 C 9,3 C 27,7 km/h (5 Bft)
27.08.2007 03:15 15,9 C 63 % 1021,5 hPa 0,0 l/m 23,4 km/h (4 Bft) NW 320 0 min 0 W/m 8,9 C 10,1 C 23,4 km/h (4 Bft)
27.08.2007 03:20 15,8 C 66 % 1021,5 hPa 0,0 l/m 29,6 km/h (5 Bft) NW 325 0 min 0 W/m 9,5 C 8,9 C 29,6 km/h (5 Bft)
27.08.2007 03:25 15,7 C 65 % 1020,5 hPa 0,0 l/m 33,1 km/h (5 Bft) NW 325 0 min 0 W/m 9,1 C 8,2 C 33,1 km/h (5 Bft)
27.08.2007 03:30 15,7 C 66 % 1020,5 hPa 0,0 l/m 24,3 km/h (4 Bft) NW 325 0 min 0 W/m 9,4 C 9,7 C 24,3 km/h (4 Bft)
27.08.2007 03:35 15,7 C 66 % 1020,5 hPa 0,0 l/m 23,6 km/h (4 Bft) NW 315 0 min 0 W/m 9,4 C 9,8 C 23,6 km/h (4 Bft)
27.08.2007 03:40 15,7 C 66 % 1020,5 hPa 0,0 l/m 26,8 km/h (4 Bft) NW 315 0 min 0 W/m 9,4 C 9,2 C 26,8 km/h (4 Bft)
27.08.2007 03:45 15,7 C 66 % 1020,5 hPa 0,0 l/m 24,8 km/h (4 Bft) NW 310 0 min 0 W/m 9,4 C 9,6 C 24,8 km/h (4 Bft)
27.08.2007 03:50 15,7 C 66 % 1020,5 hPa 0,0 l/m 25,3 km/h (4 Bft) NW 310 0 min 0 W/m 9,4 C 9,5 C 25,3 km/h (4 Bft)
27.08.2007 03:55 15,7 C 71 % 1020,5 hPa 0,0 l/m 28,7 km/h (5 Bft) NW 310 0 min 0 W/m 10,5 C 8,9 C 28,7 km/h (5 Bft)
27.08.2007 04:00 15,6 C 71 % 1020,5 hPa 0,0 l/m 24,4 km/h (4 Bft) NW 305 0 min 0 W/m 10,4 C 9,5 C 24,4 km/h (4 Bft)
27.08.2007 04:05 15,5 C 70 % 1020,5 hPa 0,0 l/m 24,4 km/h (4 Bft) W-NW 295 0 min 0 W/m 10,1 C 9,4 C 24,4 km/h (4 Bft)
27.08.2007 04:10 15,5 C 69 % 1020,5 hPa 0,0 l/m 21,2 km/h (4 Bft) NW 315 0 min 0 W/m 9,8 C 10,1 C 21,2 km/h (4 Bft)
27.08.2007 04:15 15,5 C 70 % 1020,5 hPa 0,0 l/m 25,3 km/h (4 Bft) NW 310 0 min 0 W/m 10,1 C 9,2 C 25,3 km/h (4 Bft)
27.08.2007 04:20 15,5 C 70 % 1020,5 hPa 0,0 l/m 23,6 km/h (4 Bft) NW 315 0 min 0 W/m 10,1 C 9,6 C 23,6 km/h (4 Bft)
27.08.2007 04:25 15,6 C 70 % 1020,5 hPa 0,0 l/m 20,2 km/h (4 Bft) NW 315 0 min 0 W/m 10,1 C 10,5 C 20,2 km/h (4 Bft)
27.08.2007 04:30 15,5 C 71 % 1020,5 hPa 0,0 l/m 29,3 km/h (5 Bft) NW 325 0 min 0 W/m 10,3 C 8,5 C 29,3 km/h (5 Bft)
27.08.2007 04:35 15,4 C 73 % 1020,5 hPa 0,0 l/m 27,8 km/h (5 Bft) NW 325 0 min 0 W/m 10,6 C 8,6 C 27,8 km/h (5 Bft)
27.08.2007 04:40 15,3 C 73 % 1020,5 hPa 0,0 l/m 17,0 km/h (3 Bft) NW 310 0 min 0 W/m 10,5 C 10,9 C 17,0 km/h (3 Bft)
27.08.2007 04:45 15,2 C 73 % 1020,5 hPa 0,0 l/m 18,7 km/h (3 Bft) NW 325 0 min 0 W/m 10,4 C 10,3 C 18,7 km/h (3 Bft)
27.08.2007 04:50 15,2 C 72 % 1020,5 hPa 0,0 l/m 15,6 km/h (3 Bft) NW 325 0 min 0 W/m 10,2 C 11,2 C 15,6 km/h (3 Bft)
27.08.2007 04:55 15,2 C 72 % 1020,5 hPa 0,0 l/m 15,6 km/h (3 Bft) NW 325 0 min 0 W/m 10,2 C 11,2 C 15,6 km/h (3 Bft)
27.08.2007 05:00 15,2 C 73 % 1020,5 hPa 0,0 l/m 24,2 km/h (4 Bft) NW 325 0 min 0 W/m 10,4 C 9,0 C 24,2 km/h (4 Bft)
27.08.2007 05:05 15,2 C 74 % 1020,5 hPa 0,0 l/m 29,5 km/h (5 Bft) NW 320 0 min 0 W/m 10,6 C 8,1 C 29,5 km/h (5 Bft)
27.08.2007 05:10 15,2 C 74 % 1020,5 hPa 0,0 l/m 33,1 km/h (5 Bft) NW 320 0 min 0 W/m 10,6 C 7,5 C 33,1 km/h (5 Bft)
27.08.2007 05:15 15,2 C 74 % 1020,5 hPa 0,0 l/m 24,6 km/h (4 Bft) NW 320 0 min 0 W/m 10,6 C 9,0 C 24,6 km/h (4 Bft)
27.08.2007 05:20 15,0 C 76 % 1020,5 hPa 0,0 l/m 21,2 km/h (4 Bft) NW 320 0 min 0 W/m 10,8 C 9,4 C 21,2 km/h (4 Bft)
27.08.2007 05:25 15,0 C 77 % 1020,5 hPa 0,0 l/m 16,7 km/h (3 Bft) NW 320 0 min 0 W/m 11,0 C 10,7 C 16,7 km/h (3 Bft)
27.08.2007 05:30 15,0 C 77 % 1020,5 hPa 0,0 l/m 17,5 km/h (3 Bft) NW 305 0 min 0 W/m 11,0 C 10,4 C 17,5 km/h (3 Bft)
27.08.2007 05:35 15,0 C 76 % 1020,5 hPa 0,0 l/m 28,2 km/h (5 Bft) N-NW 330 0 min 0 W/m 10,8 C 8,0 C 28,2 km/h (5 Bft)
27.08.2007 05:40 15,0 C 74 % 1020,5 hPa 0,0 l/m 26,0 km/h (4 Bft) N-NW 335 0 min 0 W/m 10,4 C 8,4 C 26,0 km/h (4 Bft)
27.08.2007 05:45 15,0 C 74 % 1019,5 hPa 0,0 l/m 24,8 km/h (4 Bft) NW 320 0 min 0 W/m 10,4 C 8,6 C 24,8 km/h (4 Bft)
27.08.2007 05:50 15,0 C 70 % 1020,5 hPa 0,0 l/m 24,5 km/h (4 Bft) NW 325 0 min 0 W/m 9,6 C 8,7 C 24,5 km/h (4 Bft)
27.08.2007 05:55 15,0 C 70 % 1020,5 hPa 0,0 l/m 22,0 km/h (4 Bft) N-NW 330 0 min 0 W/m 9,6 C 9,3 C 22,0 km/h (4 Bft)
27.08.2007 06:00 15,0 C 69 % 1020,5 hPa 0,0 l/m 19,7 km/h (3 Bft) N-NW 330 0 min 0 W/m 9,4 C 9,8 C 19,7 km/h (3 Bft)
27.08.2007 06:05 15,0 C 69 % 1020,5 hPa 0,0 l/m 24,3 km/h (4 Bft) NW 325 0 min 0 W/m 9,4 C 8,8 C 24,3 km/h (4 Bft)
27.08.2007 06:10 14,8 C 70 % 1020,5 hPa 0,0 l/m 21,3 km/h (4 Bft) NW 325 0 min 0 W/m 9,4 C 9,2 C 21,3 km/h (4 Bft)
27.08.2007 06:15 14,7 C 70 % 1019,5 hPa 0,0 l/m 19,0 km/h (3 Bft) NW 315 0 min 0 W/m 9,3 C 9,6 C 19,0 km/h (3 Bft)
27.08.2007 06:20 14,6 C 71 % 1019,5 hPa 0,0 l/m 22,0 km/h (4 Bft) N-NW 330 0 min 0 W/m 9,4 C 8,7 C 22,0 km/h (4 Bft)
27.08.2007 06:25 14,4 C 72 % 1019,5 hPa 0,0 l/m 18,3 km/h (3 Bft) NW 325 0 min 0 W/m 9,4 C 9,4 C 18,3 km/h (3 Bft)
27.08.2007 06:30 14,4 C 73 % 1019,5 hPa 0,0 l/m 19,0 km/h (3 Bft) NW 320 0 min 0 W/m 9,6 C 9,2 C 19,0 km/h (3 Bft)
27.08.2007 06:35 14,4 C 73 % 1019,5 hPa 0,0 l/m 18,8 km/h (3 Bft) NW 325 0 min 0 W/m 9,6 C 9,3 C 18,8 km/h (3 Bft)
27.08.2007 06:40 14,4 C 72 % 1020,5 hPa 0,0 l/m 16,9 km/h (3 Bft) NW 315 0 min 0 W/m 9,4 C 9,9 C 16,9 km/h (3 Bft)
27.08.2007 06:45 14,3 C 71 % 1019,5 hPa 0,0 l/m 16,5 km/h (3 Bft) NW 320 0 min 0 W/m 9,1 C 9,9 C 16,5 km/h (3 Bft)
27.08.2007 06:50 14,3 C 72 % 1019,5 hPa 0,0 l/m 16,0 km/h (3 Bft) NW 325 0 min 0 W/m 9,3 C 10,0 C 16,0 km/h (3 Bft)
27.08.2007 06:55 14,3 C 72 % 1019,5 hPa 0,0 l/m 14,8 km/h (3 Bft) NW 320 0 min 0 W/m 9,3 C 10,4 C 14,8 km/h (3 Bft)
27.08.2007 07:00 14,3 C 72 % 1019,5 hPa 0,0 l/m 20,7 km/h (4 Bft) NW 315 0 min 0 W/m 9,3 C 8,7 C 20,7 km/h (4 Bft)
27.08.2007 07:05 14,3 C 72 % 1019,5 hPa 0,0 l/m 21,6 km/h (4 Bft) NW 325 0 min 0 W/m 9,3 C 8,4 C 21,6 km/h (4 Bft)
27.08.2007 07:10 14,4 C 73 % 1020,5 hPa 0,0 l/m 15,5 km/h (3 Bft) N-NW 335 0 min 0 W/m 9,6 C 10,3 C 15,5 km/h (3 Bft)
27.08.2007 07:15 14,6 C 71 % 1020,5 hPa 0,0 l/m 22,0 km/h (4 Bft) N 350 0 min 0 W/m 9,4 C 8,7 C 22,0 km/h (4 Bft)
27.08.2007 07:20 14,9 C 70 % 1020,5 hPa 0,0 l/m 24,6 km/h (4 Bft) N-NW 340 0 min 0 W/m 9,5 C 8,6 C 24,6 km/h (4 Bft)
27.08.2007 07:25 15,0 C 70 % 1020,5 hPa 0,0 l/m 20,7 km/h (4 Bft) N-NW 330 0 min 0 W/m 9,6 C 9,6 C 20,7 km/h (4 Bft)
27.08.2007 07:30 15,1 C 69 % 1020,5 hPa 0,0 l/m 19,6 km/h (3 Bft) N-NW 330 0 min 0 W/m 9,5 C 10,0 C 19,6 km/h (3 Bft)
27.08.2007 07:35 15,2 C 69 % 1020,5 hPa 0,0 l/m 21,8 km/h (4 Bft) NW 320 0 min 0 W/m 9,6 C 9,6 C 21,8 km/h (4 Bft)
27.08.2007 07:40 15,2 C 69 % 1020,5 hPa 0,0 l/m 23,2 km/h (4 Bft) N-NW 330 0 min 0 W/m 9,6 C 9,3 C 23,2 km/h (4 Bft)
27.08.2007 07:45 15,2 C 72 % 1020,5 hPa 0,0 l/m 18,3 km/h (3 Bft) NW 325 0 min 0 W/m 10,2 C 10,5 C 18,3 km/h (3 Bft)
27.08.2007 07:50 15,2 C 73 % 1020,5 hPa 0,0 l/m 20,4 km/h (4 Bft) N-NW 330 0 min 0 W/m 10,4 C 9,9 C 20,4 km/h (4 Bft)
27.08.2007 07:55 15,2 C 73 % 1020,5 hPa 0,0 l/m 27,3 km/h (5 Bft) NW 320 0 min 0 W/m 10,4 C 8,4 C 27,3 km/h (5 Bft)
27.08.2007 08:00 15,2 C 70 % 1020,5 hPa 0,0 l/m 22,3 km/h (4 Bft) NW 320 0 min 0 W/m 9,8 C 9,5 C 22,3 km/h (4 Bft)
27.08.2007 08:05 15,4 C 69 % 1020,5 hPa 0,0 l/m 22,8 km/h (4 Bft) N-NW 330 0 min 0 W/m 9,7 C 9,6 C 22,8 km/h (4 Bft)
27.08.2007 08:10 15,5 C 70 % 1020,5 hPa 0,0 l/m 20,4 km/h (4 Bft) NW 315 0 min 0 W/m 10,1 C 10,3 C 20,4 km/h (4 Bft)
27.08.2007 08:15 15,6 C 69 % 1020,5 hPa 0,0 l/m 22,6 km/h (4 Bft) N-NW 330 0 min 0 W/m 9,9 C 9,9 C 22,6 km/h (4 Bft)
27.08.2007 08:20 15,6 C 69 % 1020,5 hPa 0,0 l/m 26,7 km/h (4 Bft) NW 320 0 min 0 W/m 9,9 C 9,1 C 26,7 km/h (4 Bft)
27.08.2007 08:25 15,6 C 67 % 1020,5 hPa 0,0 l/m 19,2 km/h (3 Bft) NW 325 0 min 0 W/m 9,5 C 10,7 C 19,2 km/h (3 Bft)
27.08.2007 08:30 15,6 C 67 % 1020,5 hPa 0,0 l/m 20,1 km/h (4 Bft) N-NW 335 0 min 0 W/m 9,5 C 10,5 C 20,1 km/h (4 Bft)
27.08.2007 08:35 15,6 C 68 % 1020,5 hPa 0,0 l/m 25,0 km/h (4 Bft) N-NW 335 0 min 0 W/m 9,7 C 9,4 C 25,0 km/h (4 Bft)
27.08.2007 08:40 15,6 C 69 % 1020,5 hPa 0,0 l/m 18,3 km/h (3 Bft) NW 320 0 min 0 W/m 9,9 C 11,0 C 18,3 km/h (3 Bft)
27.08.2007 08:45 15,6 C 71 % 1020,5 hPa 0,0 l/m 28,6 km/h (5 Bft) N-NW 330 0 min 0 W/m 10,4 C 8,8 C 28,6 km/h (5 Bft)
27.08.2007 08:50 15,3 C 72 % 1020,5 hPa 0,0 l/m 20,3 km/h (4 Bft) NW 320 0 min 0 W/m 10,3 C 10,1 C 20,3 km/h (4 Bft)
27.08.2007 08:55 15,0 C 73 % 1020,5 hPa 0,0 l/m 19,8 km/h (3 Bft) N 360 0 min 0 W/m 10,2 C 9,8 C 19,8 km/h (3 Bft)
27.08.2007 09:00 15,1 C 72 % 1020,5 hPa 0,0 l/m 21,4 km/h (4 Bft) N-NW 340 0 min 0 W/m 10,1 C 9,5 C 21,4 km/h (4 Bft)
27.08.2007 09:05 15,2 C 71 % 1020,5 hPa 0,0 l/m 14,4 km/h (3 Bft) N-NW 345 0 min 0 W/m 10,0 C 11,6 C 14,4 km/h (3 Bft)
27.08.2007 09:10 15,4 C 71 % 1020,5 hPa 0,0 l/m 27,1 km/h (5 Bft) N 360 0 min 0 W/m 10,2 C 8,7 C 27,1 km/h (5 Bft)
27.08.2007 09:15 15,2 C 70 % 1020,5 hPa 0,0 l/m 17,0 km/h (3 Bft) N-NO 20 0 min 0 W/m 9,8 C 10,8 C 17,0 km/h (3 Bft)
27.08.2007 09:20 15,0 C 72 % 1020,5 hPa 0,0 l/m 16,9 km/h (3 Bft) N 5 0 min 0 W/m 10,0 C 10,6 C 16,9 km/h (3 Bft)
27.08.2007 09:25 15,0 C 73 % 1020,5 hPa 0,0 l/m 18,0 km/h (3 Bft) N-NO 15 0 min 0 W/m 10,2 C 10,3 C 18,0 km/h (3 Bft)
27.08.2007 09:30 15,0 C 73 % 1020,5 hPa 0,0 l/m 13,6 km/h (3 Bft) N-NO 15 0 min 0 W/m 10,2 C 11,7 C 13,6 km/h (3 Bft)
27.08.2007 09:35 15,0 C 74 % 1020,5 hPa 0,0 l/m 10,0 km/h (2 Bft) N 5 0 min 0 W/m 10,4 C 13,1 C 10,0 km/h (2 Bft)
27.08.2007 09:40 15,3 C 74 % 1020,5 hPa 0,0 l/m 6,0 km/h (2 Bft) NW 320 0 min 0 W/m 10,7 C 15,3 C 6,0 km/h (2 Bft)
27.08.2007 09:45 15,6 C 73 % 1020,5 hPa 0,0 l/m 9,7 km/h (2 Bft) NW 325 0 min 0 W/m 10,8 C 13,9 C 9,7 km/h (2 Bft)
27.08.2007 09:50 15,8 C 73 % 1020,5 hPa 0,0 l/m 2,1 km/h (1 Bft) NW 315 0 min 0 W/m 11,0 C 15,8 C 2,1 km/h (1 Bft)
27.08.2007 09:55 16,2 C 72 % 1020,5 hPa 0,0 l/m 8,9 km/h (2 Bft) NW 315 0 min 0 W/m 11,1 C 14,9 C 8,9 km/h (2 Bft)
27.08.2007 10:00 16,4 C 71 % 1020,5 hPa 0,0 l/m 7,3 km/h (2 Bft) NW 320 0 min 0 W/m 11,1 C 15,9 C 7,3 km/h (2 Bft)
27.08.2007 10:05 16,6 C 69 % 1019,5 hPa 0,0 l/m 16,0 km/h (3 Bft) NW 320 0 min 0 W/m 10,9 C 12,8 C 16,0 km/h (3 Bft)
27.08.2007 10:10 16,8 C 67 % 1019,5 hPa 0,0 l/m 20,4 km/h (4 Bft) NW 320 0 min 0 W/m 10,6 C 12,0 C 20,4 km/h (4 Bft)
27.08.2007 10:15 16,8 C 65 % 1020,5 hPa 0,0 l/m 15,3 km/h (3 Bft) N-NW 330 0 min 0 W/m 10,2 C 13,3 C 15,3 km/h (3 Bft)
27.08.2007 10:20 17,9 C 66 % 1020,5 hPa 0,0 l/m 19,7 km/h (3 Bft) NW 325 0 min 0 W/m 11,5 C 13,6 C 19,7 km/h (3 Bft)
27.08.2007 10:25 18,6 C 61 % 1020,5 hPa 0,0 l/m 22,5 km/h (4 Bft) N-NW 330 0 min 0 W/m 10,9 C 13,9 C 22,5 km/h (4 Bft)
27.08.2007 10:30 18,8 C 59 % 1020,5 hPa 0,0 l/m 29,6 km/h (5 Bft) NW 320 0 min 0 W/m 10,6 C 13,1 C 29,6 km/h (5 Bft)
27.08.2007 10:35 18,6 C 58 % 1020,5 hPa 0,0 l/m 28,6 km/h (5 Bft) N-NW 330 0 min 0 W/m 10,2 C 12,9 C 28,6 km/h (5 Bft)
27.08.2007 10:40 18,2 C 60 % 1020,5 hPa 0,0 l/m 16,6 km/h (3 Bft) NW 320 0 min 0 W/m 10,3 C 14,7 C 16,6 km/h (3 Bft)
27.08.2007 10:45 17,8 C 60 % 1020,5 hPa 0,0 l/m 28,0 km/h (5 Bft) NW 325 0 min 0 W/m 9,9 C 11,9 C 28,0 km/h (5 Bft)
27.08.2007 10:50 17,6 C 61 % 1020,5 hPa 0,0 l/m 26,5 km/h (4 Bft) NW 315 0 min 0 W/m 10,0 C 11,9 C 26,5 km/h (4 Bft)
27.08.2007 10:55 17,6 C 61 % 1020,5 hPa 0,0 l/m 24,8 km/h (4 Bft) N-NW 330 0 min 0 W/m 10,0 C 12,2 C 24,8 km/h (4 Bft)
27.08.2007 11:00 18,0 C 60 % 1020,5 hPa 0,0 l/m 19,6 km/h (3 Bft) N-NW 335 0 min 0 W/m 10,1 C 13,7 C 19,6 km/h (3 Bft)
27.08.2007 11:05 18,4 C 60 % 1020,5 hPa 0,0 l/m 22,8 km/h (4 Bft) NW 325 0 min 0 W/m 10,5 C 13,6 C 22,8 km/h (4 Bft)
27.08.2007 11:10 18,4 C 58 % 1020,5 hPa 0,0 l/m 26,4 km/h (4 Bft) N-NW 340 0 min 0 W/m 10,0 C 13,0 C 26,4 km/h (4 Bft)
27.08.2007 11:15 18,5 C 59 % 1020,5 hPa 0,0 l/m 22,1 km/h (4 Bft) N-NW 335 0 min 0 W/m 10,3 C 13,9 C 22,1 km/h (4 Bft)
27.08.2007 11:19 18,3 C 59 % 1020,5 hPa 0,0 l/m 21,1 km/h (4 Bft) NW 320 0 min 0 W/m 10,1 C 13,8 C 21,1 km/h (4 Bft)
27.08.2007 11:25 18,3 C 58 % 1020,5 hPa 0,0 l/m 23,0 km/h (4 Bft) N-NW 330 0 min 0 W/m 9,9 C 13,4 C 23,0 km/h (4 Bft)
27.08.2007 11:30 18,4 C 59 % 1020,5 hPa 0,0 l/m 23,0 km/h (4 Bft) NW 310 0 min 0 W/m 10,2 C 13,6 C 23,0 km/h (4 Bft)
27.08.2007 11:35 18,4 C 59 % 1020,5 hPa 0,0 l/m 22,1 km/h (4 Bft) NW 315 0 min 0 W/m 10,2 C 13,7 C 22,1 km/h (4 Bft)
27.08.2007 11:40 18,4 C 60 % 1020,5 hPa 0,0 l/m 22,4 km/h (4 Bft) NW 320 0 min 0 W/m 10,5 C 13,7 C 22,4 km/h (4 Bft)
27.08.2007 11:45 18,3 C 60 % 1019,5 hPa 0,0 l/m 22,4 km/h (4 Bft) NW 325 0 min 0 W/m 10,4 C 13,5 C 22,4 km/h (4 Bft)
27.08.2007 11:50 18,2 C 61 % 1019,5 hPa 0,0 l/m 26,2 km/h (4 Bft) NW 320 0 min 0 W/m 10,6 C 12,7 C 26,2 km/h (4 Bft)
27.08.2007 11:55 17,9 C 62 % 1019,5 hPa 0,0 l/m 21,3 km/h (4 Bft) NW 320 0 min 0 W/m 10,5 C 13,2 C 21,3 km/h (4 Bft)
27.08.2007 12:00 17,6 C 63 % 1019,5 hPa 0,0 l/m 21,3 km/h (4 Bft) NW 320 0 min 0 W/m 10,5 C 12,8 C 21,3 km/h (4 Bft)
27.08.2007 12:05 17,4 C 66 % 1019,5 hPa 0,0 l/m 22,9 km/h (4 Bft) NW 315 0 min 0 W/m 11,0 C 12,2 C 22,9 km/h (4 Bft)
27.08.2007 12:10 17,5 C 68 % 1019,5 hPa 0,0 l/m 22,6 km/h (4 Bft) N-NW 345 0 min 0 W/m 11,5 C 12,4 C 22,6 km/h (4 Bft)
27.08.2007 12:15 17,6 C 67 % 1019,5 hPa 0,0 l/m 20,2 km/h (4 Bft) N-NW 335 0 min 0 W/m 11,4 C 13,1 C 20,2 km/h (4 Bft)
27.08.2007 12:20 17,6 C 65 % 1019,5 hPa 0,0 l/m 21,6 km/h (4 Bft) NW 320 0 min 0 W/m 10,9 C 12,8 C 21,6 km/h (4 Bft)
27.08.2007 12:25 17,5 C 68 % 1019,5 hPa 0,0 l/m 22,7 km/h (4 Bft) N 350 0 min 0 W/m 11,5 C 12,4 C 22,7 km/h (4 Bft)
27.08.2007 12:30 17,2 C 70 % 1019,5 hPa 0,0 l/m 22,6 km/h (4 Bft) N 350 0 min 0 W/m 11,7 C 12,0 C 22,6 km/h (4 Bft)
27.08.2007 12:35 17,0 C 70 % 1019,5 hPa 0,0 l/m 20,3 km/h (4 Bft) N 355 0 min 0 W/m 11,5 C 12,3 C 20,3 km/h (4 Bft)
27.08.2007 12:40 16,7 C 73 % 1019,5 hPa 0,0 l/m 19,7 km/h (3 Bft) N 350 0 min 0 W/m 11,8 C 12,0 C 19,7 km/h (3 Bft)
27.08.2007 12:45 16,6 C 73 % 1019,5 hPa 0,0 l/m 13,1 km/h (3 Bft) N-NW 335 0 min 0 W/m 11,7 C 13,7 C 13,1 km/h (3 Bft)
27.08.2007 12:50 16,5 C 74 % 1019,5 hPa 0,0 l/m 21,0 km/h (4 Bft) NW 325 0 min 0 W/m 11,8 C 11,5 C 21,0 km/h (4 Bft)
27.08.2007 12:55 16,0 C 77 % 1019,5 hPa 0,3 l/m 16,0 km/h (3 Bft) NW 315 0 min 0 W/m 12,0 C 12,1 C 16,0 km/h (3 Bft)
27.08.2007 13:00 16,1 C 80 % 1019,5 hPa 0,0 l/m 19,3 km/h (3 Bft) NW 320 0 min 0 W/m 12,6 C 11,3 C 19,3 km/h (3 Bft)
27.08.2007 13:05 16,3 C 78 % 1019,5 hPa 0,0 l/m 27,3 km/h (5 Bft) NW 320 0 min 0 W/m 12,5 C 10,0 C 27,3 km/h (5 Bft)
27.08.2007 13:10 16,7 C 75 % 1019,5 hPa 0,0 l/m 31,7 km/h (5 Bft) NW 320 0 min 0 W/m 12,2 C 9,8 C 31,7 km/h (5 Bft)
27.08.2007 13:15 17,0 C 72 % 1019,5 hPa 0,0 l/m 27,3 km/h (5 Bft) NW 320 0 min 0 W/m 11,9 C 10,9 C 27,3 km/h (5 Bft)
27.08.2007 13:20 17,4 C 73 % 1019,5 hPa 0,0 l/m 25,5 km/h (4 Bft) NW 310 0 min 0 W/m 12,5 C 11,8 C 25,5 km/h (4 Bft)
27.08.2007 13:25 17,5 C 73 % 1019,5 hPa 0,0 l/m 36,7 km/h (5 Bft) NW 310 0 min 0 W/m 12,6 C 10,4 C 36,7 km/h (5 Bft)
27.08.2007 13:30 17,8 C 71 % 1019,5 hPa 0,0 l/m 35,0 km/h (5 Bft) NW 320 0 min 0 W/m 12,5 C 11,0 C 35,0 km/h (5 Bft)
27.08.2007 13:35 17,7 C 71 % 1019,5 hPa 0,0 l/m 24,8 km/h (4 Bft) NW 325 0 min 0 W/m 12,4 C 12,3 C 24,8 km/h (4 Bft)
27.08.2007 13:40 17,7 C 71 % 1019,5 hPa 0,0 l/m 24,5 km/h (4 Bft) NW 315 0 min 0 W/m 12,4 C 12,4 C 24,5 km/h (4 Bft)
27.08.2007 13:45 17,7 C 69 % 1019,5 hPa 0,0 l/m 20,8 km/h (4 Bft) NW 315 0 min 0 W/m 11,9 C 13,1 C 20,8 km/h (4 Bft)
27.08.2007 13:50 17,8 C 70 % 1019,5 hPa 0,0 l/m 25,1 km/h (4 Bft) NW 320 0 min 0 W/m 12,3 C 12,4 C 25,1 km/h (4 Bft)
27.08.2007 13:55 17,8 C 70 % 1019,5 hPa 0,0 l/m 24,8 km/h (4 Bft) NW 310 0 min 0 W/m 12,3 C 12,4 C 24,8 km/h (4 Bft)
27.08.2007 14:00 17,7 C 70 % 1019,5 hPa 0,0 l/m 28,5 km/h (5 Bft) NW 310 0 min 0 W/m 12,2 C 11,7 C 28,5 km/h (5 Bft)
27.08.2007 14:05 17,5 C 70 % 1019,5 hPa 0,0 l/m 34,0 km/h (5 Bft) NW 315 0 min 0 W/m 12,0 C 10,7 C 34,0 km/h (5 Bft)
27.08.2007 14:10 17,3 C 70 % 1019,5 hPa 0,0 l/m 33,5 km/h (5 Bft) W-NW 300 0 min 0 W/m 11,8 C 10,4 C 33,5 km/h (5 Bft)
27.08.2007 14:15 17,2 C 71 % 1019,5 hPa 0,0 l/m 25,4 km/h (4 Bft) NW 310 0 min 0 W/m 11,9 C 11,5 C 25,4 km/h (4 Bft)
27.08.2007 14:20 17,4 C 70 % 1019,5 hPa 0,0 l/m 23,2 km/h (4 Bft) NW 315 0 min 0 W/m 11,9 C 12,2 C 23,2 km/h (4 Bft)
27.08.2007 14:25 17,6 C 68 % 1019,5 hPa 0,0 l/m 33,7 km/h (5 Bft) NW 315 0 min 0 W/m 11,6 C 10,9 C 33,7 km/h (5 Bft)
27.08.2007 14:30 17,5 C 68 % 1018,5 hPa 0,0 l/m 30,7 km/h (5 Bft) NW 325 0 min 0 W/m 11,5 C 11,1 C 30,7 km/h (5 Bft)
27.08.2007 14:35 17,5 C 68 % 1018,5 hPa 0,0 l/m 22,5 km/h (4 Bft) NW 315 0 min 0 W/m 11,5 C 12,5 C 22,5 km/h (4 Bft)
27.08.2007 14:40 17,7 C 67 % 1018,5 hPa 0,0 l/m 16,6 km/h (3 Bft) NW 315 0 min 0 W/m 11,5 C 14,0 C 16,6 km/h (3 Bft)
27.08.2007 14:45 17,7 C 66 % 1018,5 hPa 0,0 l/m 22,8 km/h (4 Bft) NW 310 0 min 0 W/m 11,3 C 12,7 C 22,8 km/h (4 Bft)
27.08.2007 14:50 17,9 C 65 % 1018,5 hPa 0,0 l/m 29,6 km/h (5 Bft) NW 325 0 min 0 W/m 11,2 C 11,8 C 29,6 km/h (5 Bft)
27.08.2007 14:55 18,1 C 63 % 1018,5 hPa 0,0 l/m 29,9 km/h (5 Bft) NW 325 0 min 0 W/m 10,9 C 12,1 C 29,9 km/h (5 Bft)
27.08.2007 15:00 18,2 C 62 % 1018,5 hPa 0,0 l/m 32,7 km/h (5 Bft) NW 310 0 min 0 W/m 10,8 C 11,8 C 32,7 km/h (5 Bft)
27.08.2007 15:05 18,2 C 61 % 1018,5 hPa 0,0 l/m 30,9 km/h (5 Bft) NW 325 0 min 0 W/m 10,6 C 12,1 C 30,9 km/h (5 Bft)
27.08.2007 15:10 18,4 C 62 % 1018,5 hPa 0,0 l/m 32,2 km/h (5 Bft) NW 315 0 min 0 W/m 11,0 C 12,2 C 32,2 km/h (5 Bft)
27.08.2007 15:15 18,2 C 63 % 1018,5 hPa 0,0 l/m 33,4 km/h (5 Bft) NW 315 0 min 0 W/m 11,0 C 11,8 C 33,4 km/h (5 Bft)
27.08.2007 15:20 18,0 C 66 % 1018,5 hPa 0,0 l/m 29,0 km/h (5 Bft) NW 320 0 min 0 W/m 11,6 C 12,0 C 29,0 km/h (5 Bft)
27.08.2007 15:25 18,0 C 64 % 1018,5 hPa 0,0 l/m 31,2 km/h (5 Bft) NW 325 0 min 0 W/m 11,1 C 11,7 C 31,2 km/h (5 Bft)
27.08.2007 15:30 18,4 C 64 % 1018,5 hPa 0,0 l/m 14,3 km/h (3 Bft) NW 305 0 min 0 W/m 11,5 C 15,5 C 14,3 km/h (3 Bft)
27.08.2007 15:35 18,3 C 65 % 1018,5 hPa 0,0 l/m 30,9 km/h (5 Bft) NW 305 0 min 0 W/m 11,6 C 12,2 C 30,9 km/h (5 Bft)
27.08.2007 15:40 18,5 C 62 % 1018,5 hPa 0,0 l/m 35,5 km/h (5 Bft) NW 325 0 min 0 W/m 11,1 C 11,9 C 35,5 km/h (5 Bft)
27.08.2007 15:45 18,4 C 61 % 1018,5 hPa 0,0 l/m 35,9 km/h (5 Bft) NW 325 0 min 0 W/m 10,7 C 11,8 C 35,9 km/h (5 Bft)
27.08.2007 15:50 18,4 C 63 % 1018,5 hPa 0,0 l/m 33,3 km/h (5 Bft) NW 320 0 min 0 W/m 11,2 C 12,1 C 33,3 km/h (5 Bft)
27.08.2007 15:55 17,8 C 63 % 1018,5 hPa 0,0 l/m 29,2 km/h (5 Bft) NW 320 0 min 0 W/m 10,7 C 11,7 C 29,2 km/h (5 Bft)
27.08.2007 16:00 17,4 C 65 % 1018,5 hPa 0,0 l/m 24,8 km/h (4 Bft) NW 310 0 min 0 W/m 10,8 C 11,9 C 24,8 km/h (4 Bft)
27.08.2007 16:05 17,3 C 66 % 1018,5 hPa 0,0 l/m 28,0 km/h (5 Bft) NW 315 0 min 0 W/m 10,9 C 11,2 C 28,0 km/h (5 Bft)
27.08.2007 16:10 17,8 C 63 % 1018,5 hPa 0,0 l/m 33,8 km/h (5 Bft) NW 310 0 min 0 W/m 10,7 C 11,1 C 33,8 km/h (5 Bft)
27.08.2007 16:15 18,4 C 62 % 1017,5 hPa 0,0 l/m 32,0 km/h (5 Bft) NW 315 0 min 0 W/m 11,0 C 12,2 C 32,0 km/h (5 Bft)
27.08.2007 16:20 18,6 C 62 % 1017,5 hPa 0,0 l/m 32,5 km/h (5 Bft) NW 305 0 min 0 W/m 11,2 C 12,4 C 32,5 km/h (5 Bft)
27.08.2007 16:25 18,8 C 61 % 1017,5 hPa 0,0 l/m 30,5 km/h (5 Bft) NW 305 0 min 0 W/m 11,1 C 13,0 C 30,5 km/h (5 Bft)
27.08.2007 16:30 18,9 C 61 % 1017,5 hPa 0,0 l/m 28,1 km/h (5 Bft) NW 305 0 min 0 W/m 11,2 C 13,4 C 28,1 km/h (5 Bft)
27.08.2007 16:35 18,9 C 60 % 1017,5 hPa 0,0 l/m 23,2 km/h (4 Bft) W-NW 300 0 min 0 W/m 11,0 C 14,2 C 23,2 km/h (4 Bft)
27.08.2007 16:40 18,7 C 60 % 1017,5 hPa 0,0 l/m 32,4 km/h (5 Bft) NW 310 0 min 0 W/m 10,8 C 12,6 C 32,4 km/h (5 Bft)
27.08.2007 16:45 18,5 C 63 % 1017,5 hPa 0,0 l/m 27,9 km/h (5 Bft) NW 325 0 min 0 W/m 11,3 C 12,9 C 27,9 km/h (5 Bft)
27.08.2007 16:50 18,6 C 64 % 1017,5 hPa 0,0 l/m 34,3 km/h (5 Bft) W-NW 300 0 min 0 W/m 11,7 C 12,2 C 34,3 km/h (5 Bft)
27.08.2007 16:55 18,5 C 63 % 1017,5 hPa 0,0 l/m 34,3 km/h (5 Bft) W-NW 300 0 min 0 W/m 11,3 C 12,1 C 34,3 km/h (5 Bft)
27.08.2007 17:00 18,5 C 62 % 1017,5 hPa 0,0 l/m 32,7 km/h (5 Bft) NW 315 0 min 0 W/m 11,1 C 12,3 C 32,7 km/h (5 Bft)
27.08.2007 17:05 18,4 C 63 % 1017,5 hPa 0,0 l/m 30,4 km/h (5 Bft) NW 305 0 min 0 W/m 11,2 C 12,4 C 30,4 km/h (5 Bft)
27.08.2007 17:10 18,4 C 61 % 1017,5 hPa 0,0 l/m 25,3 km/h (4 Bft) NW 315 0 min 0 W/m 10,7 C 13,2 C 25,3 km/h (4 Bft)
27.08.2007 17:15 18,3 C 63 % 1017,5 hPa 0,0 l/m 29,4 km/h (5 Bft) NW 310 0 min 0 W/m 11,1 C 12,4 C 29,4 km/h (5 Bft)
27.08.2007 17:20 18,4 C 62 % 1017,5 hPa 0,0 l/m 28,5 km/h (5 Bft) NW 315 0 min 0 W/m 11,0 C 12,7 C 28,5 km/h (5 Bft)
27.08.2007 17:25 18,4 C 61 % 1017,5 hPa 0,0 l/m 33,0 km/h (5 Bft) W-NW 300 0 min 0 W/m 10,7 C 12,1 C 33,0 km/h (5 Bft)
27.08.2007 17:30 18,4 C 61 % 1017,5 hPa 0,0 l/m 29,5 km/h (5 Bft) NW 320 0 min 0 W/m 10,7 C 12,5 C 29,5 km/h (5 Bft)
27.08.2007 17:35 18,4 C 61 % 1017,5 hPa 0,0 l/m 35,8 km/h (5 Bft) NW 315 0 min 0 W/m 10,7 C 11,8 C 35,8 km/h (5 Bft)
27.08.2007 17:40 18,4 C 62 % 1017,5 hPa 0,0 l/m 36,2 km/h (5 Bft) NW 310 0 min 0 W/m 11,0 C 11,7 C 36,2 km/h (5 Bft)
27.08.2007 17:45 18,4 C 61 % 1017,5 hPa 0,0 l/m 32,3 km/h (5 Bft) NW 320 0 min 0 W/m 10,7 C 12,2 C 32,3 km/h (5 Bft)
27.08.2007 17:50 18,4 C 62 % 1017,5 hPa 0,0 l/m 26,6 km/h (4 Bft) W-NW 295 0 min 0 W/m 11,0 C 13,0 C 26,6 km/h (4 Bft)
27.08.2007 17:55 18,4 C 61 % 1017,5 hPa 0,0 l/m 26,7 km/h (4 Bft) NW 320 0 min 0 W/m 10,7 C 12,9 C 26,7 km/h (4 Bft)
27.08.2007 18:00 18,4 C 61 % 1017,5 hPa 0,0 l/m 30,1 km/h (5 Bft) W-NW 290 0 min 0 W/m 10,7 C 12,5 C 30,1 km/h (5 Bft)
27.08.2007 18:05 18,3 C 61 % 1017,5 hPa 0,0 l/m 31,8 km/h (5 Bft) NW 315 0 min 0 W/m 10,6 C 12,1 C 31,8 km/h (5 Bft)
27.08.2007 18:10 18,1 C 63 % 1017,5 hPa 0,0 l/m 27,2 km/h (5 Bft) N-NW 330 0 min 0 W/m 10,9 C 12,5 C 27,2 km/h (5 Bft)
27.08.2007 18:15 17,9 C 63 % 1017,5 hPa 0,0 l/m 28,6 km/h (5 Bft) NW 305 0 min 0 W/m 10,8 C 12,0 C 28,6 km/h (5 Bft)
27.08.2007 18:20 17,9 C 64 % 1017,5 hPa 0,0 l/m 28,0 km/h (5 Bft) NW 305 0 min 0 W/m 11,0 C 12,1 C 28,0 km/h (5 Bft)
27.08.2007 18:25 18,0 C 63 % 1017,5 hPa 0,0 l/m 35,7 km/h (5 Bft) NW 310 0 min 0 W/m 10,8 C 11,2 C 35,7 km/h (5 Bft)
27.08.2007 18:30 17,9 C 63 % 1017,5 hPa 0,0 l/m 28,4 km/h (5 Bft) NW 320 0 min 0 W/m 10,8 C 12,0 C 28,4 km/h (5 Bft)
27.08.2007 18:35 17,8 C 62 % 1017,5 hPa 0,0 l/m 22,6 km/h (4 Bft) NW 305 0 min 0 W/m 10,4 C 12,8 C 22,6 km/h (4 Bft)
27.08.2007 18:40 17,5 C 63 % 1017,5 hPa 0,0 l/m 25,3 km/h (4 Bft) NW 310 0 min 0 W/m 10,4 C 11,9 C 25,3 km/h (4 Bft)
27.08.2007 18:45 17,2 C 64 % 1017,5 hPa 0,0 l/m 26,5 km/h (4 Bft) NW 315 0 min 0 W/m 10,3 C 11,3 C 26,5 km/h (4 Bft)
27.08.2007 18:50 17,1 C 65 % 1017,5 hPa 0,0 l/m 30,0 km/h (5 Bft) NW 320 0 min 0 W/m 10,5 C 10,6 C 30,0 km/h (5 Bft)
27.08.2007 18:55 16,9 C 67 % 1016,5 hPa 0,0 l/m 28,8 km/h (5 Bft) NW 315 0 min 0 W/m 10,7 C 10,5 C 28,8 km/h (5 Bft)
27.08.2007 19:00 16,8 C 70 % 1016,5 hPa 0,0 l/m 43,9 km/h (6 Bft) NW 320 0 min 0 W/m 11,3 C 8,6 C 43,9 km/h (6 Bft)
27.08.2007 19:05 16,7 C 69 % 1016,5 hPa 0,0 l/m 32,1 km/h (5 Bft) NW 315 0 min 0 W/m 11,0 C 9,8 C 32,1 km/h (5 Bft)
27.08.2007 19:10 16,7 C 70 % 1016,5 hPa 0,0 l/m 21,9 km/h (4 Bft) NW 315 0 min 0 W/m 11,2 C 11,5 C 21,9 km/h (4 Bft)
27.08.2007 19:15 16,7 C 68 % 1016,5 hPa 0,0 l/m 29,5 km/h (5 Bft) NW 315 0 min 0 W/m 10,8 C 10,2 C 29,5 km/h (5 Bft)
27.08.2007 19:20 16,7 C 68 % 1016,5 hPa 0,0 l/m 28,5 km/h (5 Bft) NW 315 0 min 0 W/m 10,8 C 10,3 C 28,5 km/h (5 Bft)
27.08.2007 19:25 16,7 C 68 % 1016,5 hPa 0,0 l/m 22,9 km/h (4 Bft) NW 320 0 min 0 W/m 10,8 C 11,3 C 22,9 km/h (4 Bft)
27.08.2007 19:30 16,7 C 69 % 1016,5 hPa 0,0 l/m 28,1 km/h (5 Bft) NW 320 0 min 0 W/m 11,0 C 10,4 C 28,1 km/h (5 Bft)
27.08.2007 19:35 16,6 C 68 % 1016,5 hPa 0,0 l/m 24,0 km/h (4 Bft) NW 315 0 min 0 W/m 10,7 C 11,0 C 24,0 km/h (4 Bft)
27.08.2007 19:40 16,6 C 69 % 1016,5 hPa 0,0 l/m 30,4 km/h (5 Bft) NW 310 0 min 0 W/m 10,9 C 9,9 C 30,4 km/h (5 Bft)
27.08.2007 19:45 16,6 C 69 % 1016,5 hPa 0,0 l/m 30,7 km/h (5 Bft) NW 315 0 min 0 W/m 10,9 C 9,8 C 30,7 km/h (5 Bft)
27.08.2007 19:50 16,5 C 69 % 1016,5 hPa 0,0 l/m 25,0 km/h (4 Bft) NW 305 0 min 0 W/m 10,8 C 10,6 C 25,0 km/h (4 Bft)
27.08.2007 19:55 16,5 C 70 % 1016,5 hPa 0,0 l/m 27,5 km/h (5 Bft) NW 325 0 min 0 W/m 11,0 C 10,2 C 27,5 km/h (5 Bft)
27.08.2007 20:00 16,4 C 69 % 1016,5 hPa 0,0 l/m 21,0 km/h (4 Bft) NW 310 0 min 0 W/m 10,7 C 11,3 C 21,0 km/h (4 Bft)
27.08.2007 20:05 16,3 C 69 % 1016,5 hPa 0,0 l/m 24,6 km/h (4 Bft) NW 310 0 min 0 W/m 10,6 C 10,4 C 24,6 km/h (4 Bft)
27.08.2007 20:10 16,2 C 67 % 1016,5 hPa 0,0 l/m 30,1 km/h (5 Bft) NW 320 0 min 0 W/m 10,1 C 9,4 C 30,1 km/h (5 Bft)
27.08.2007 20:15 16,2 C 68 % 1016,5 hPa 0,0 l/m 28,2 km/h (5 Bft) NW 315 0 min 0 W/m 10,3 C 9,7 C 28,2 km/h (5 Bft)
27.08.2007 20:20 16,2 C 69 % 1016,5 hPa 0,0 l/m 27,7 km/h (5 Bft) NW 315 0 min 0 W/m 10,5 C 9,7 C 27,7 km/h (5 Bft)
27.08.2007 20:25 16,2 C 70 % 1016,5 hPa 0,0 l/m 24,6 km/h (4 Bft) NW 315 0 min 0 W/m 10,7 C 10,3 C 24,6 km/h (4 Bft)
27.08.2007 20:30 16,1 C 70 % 1016,5 hPa 0,0 l/m 19,6 km/h (3 Bft) NW 320 0 min 0 W/m 10,6 C 11,3 C 19,6 km/h (3 Bft)
27.08.2007 20:35 16,1 C 72 % 1016,5 hPa 0,0 l/m 21,1 km/h (4 Bft) N-NW 330 0 min 0 W/m 11,0 C 10,9 C 21,1 km/h (4 Bft)
27.08.2007 20:40 16,0 C 72 % 1016,5 hPa 0,0 l/m 27,0 km/h (5 Bft) N-NW 330 0 min 0 W/m 11,0 C 9,6 C 27,0 km/h (5 Bft)
27.08.2007 20:45 16,0 C 72 % 1016,5 hPa 0,0 l/m 25,8 km/h (4 Bft) NW 320 0 min 0 W/m 11,0 C 9,8 C 25,8 km/h (4 Bft)
27.08.2007 20:50 15,9 C 72 % 1016,5 hPa 0,0 l/m 20,0 km/h (4 Bft) NW 315 0 min 0 W/m 10,9 C 10,9 C 20,0 km/h (4 Bft)
27.08.2007 20:55 15,9 C 72 % 1016,5 hPa 0,0 l/m 28,2 km/h (5 Bft) NW 315 0 min 0 W/m 10,9 C 9,2 C 28,2 km/h (5 Bft)
27.08.2007 21:00 15,8 C 72 % 1016,5 hPa 0,0 l/m 26,2 km/h (4 Bft) NW 320 0 min 0 W/m 10,8 C 9,5 C 26,2 km/h (4 Bft)
27.08.2007 21:05 15,8 C 72 % 1016,5 hPa 0,0 l/m 28,3 km/h (5 Bft) NW 315 0 min 0 W/m 10,8 C 9,1 C 28,3 km/h (5 Bft)
27.08.2007 21:10 15,8 C 72 % 1016,5 hPa 0,0 l/m 26,1 km/h (4 Bft) N-NW 335 0 min 0 W/m 10,8 C 9,5 C 26,1 km/h (4 Bft)
27.08.2007 21:15 15,8 C 76 % 1016,5 hPa 0,0 l/m 29,1 km/h (5 Bft) N-NW 340 0 min 0 W/m 11,6 C 9,0 C 29,1 km/h (5 Bft)
27.08.2007 21:20 15,6 C 78 % 1016,5 hPa 0,0 l/m 33,6 km/h (5 Bft) N-NW 345 0 min 0 W/m 11,8 C 8,0 C 33,6 km/h (5 Bft)
27.08.2007 21:25 15,2 C 81 % 1016,5 hPa 0,0 l/m 38,4 km/h (6 Bft) N 350 0 min 0 W/m 12,0 C 6,8 C 38,4 km/h (6 Bft)
27.08.2007 21:30 14,6 C 84 % 1016,5 hPa 0,9 l/m 34,0 km/h (5 Bft) N-NW 345 0 min 0 W/m 11,9 C 6,5 C 34,0 km/h (5 Bft)
27.08.2007 21:35 14,5 C 85 % 1016,5 hPa 0,0 l/m 23,4 km/h (4 Bft) N-NW 345 0 min 0 W/m 12,0 C 8,3 C 23,4 km/h (4 Bft)
27.08.2007 21:40 14,3 C 86 % 1016,5 hPa 0,0 l/m 31,3 km/h (5 Bft) N-NW 345 0 min 0 W/m 12,0 C 6,5 C 31,3 km/h (5 Bft)
27.08.2007 21:45 14,1 C 87 % 1016,5 hPa 0,0 l/m 23,5 km/h (4 Bft) N-NW 330 0 min 0 W/m 12,0 C 7,7 C 23,5 km/h (4 Bft)
27.08.2007 21:50 14,1 C 87 % 1016,5 hPa 0,3 l/m 21,5 km/h (4 Bft) N-NW 330 0 min 0 W/m 12,0 C 8,2 C 21,5 km/h (4 Bft)
27.08.2007 21:55 14,1 C 88 % 1016,5 hPa 0,6 l/m 15,1 km/h (3 Bft) NW 325 0 min 0 W/m 12,1 C 10,1 C 15,1 km/h (3 Bft)
27.08.2007 22:01 14,2 C 88 % 1016,5 hPa 0,0 l/m 14,7 km/h (3 Bft) N-NW 330 0 min 0 W/m 12,2 C 10,3 C 14,7 km/h (3 Bft)
27.08.2007 22:06 14,1 C 88 % 1016,5 hPa 0,0 l/m 28,5 km/h (5 Bft) N 360 0 min 0 W/m 12,1 C 6,7 C 28,5 km/h (5 Bft)
27.08.2007 22:11 14,0 C 88 % 1016,5 hPa 0,0 l/m 23,4 km/h (4 Bft) N 360 0 min 0 W/m 12,0 C 7,6 C 23,4 km/h (4 Bft)
27.08.2007 22:16 14,0 C 89 % 1016,5 hPa 0,0 l/m 24,5 km/h (4 Bft) N 5 0 min 0 W/m 12,2 C 7,4 C 24,5 km/h (4 Bft)
27.08.2007 22:21 13,9 C 88 % 1016,5 hPa 0,0 l/m 27,8 km/h (5 Bft) N 355 0 min 0 W/m 11,9 C 6,5 C 27,8 km/h (5 Bft)
27.08.2007 22:26 13,9 C 88 % 1016,5 hPa 0,0 l/m 24,1 km/h (4 Bft) N-NO 15 0 min 0 W/m 11,9 C 7,3 C 24,1 km/h (4 Bft)
27.08.2007 22:31 13,9 C 87 % 1016,5 hPa 0,0 l/m 24,5 km/h (4 Bft) N 355 0 min 0 W/m 11,8 C 7,2 C 24,5 km/h (4 Bft)
27.08.2007 22:36 14,0 C 86 % 1016,5 hPa 0,0 l/m 22,9 km/h (4 Bft) N 360 0 min 0 W/m 11,7 C 7,7 C 22,9 km/h (4 Bft)
27.08.2007 22:41 14,1 C 85 % 1016,5 hPa 0,0 l/m 22,3 km/h (4 Bft) N 350 0 min 0 W/m 11,6 C 8,0 C 22,3 km/h (4 Bft)
27.08.2007 22:46 14,2 C 83 % 1016,5 hPa 0,0 l/m 27,5 km/h (5 Bft) N 355 0 min 0 W/m 11,4 C 7,0 C 27,5 km/h (5 Bft)
27.08.2007 22:51 14,4 C 83 % 1016,5 hPa 0,0 l/m 24,8 km/h (4 Bft) N 10 0 min 0 W/m 11,5 C 7,8 C 24,8 km/h (4 Bft)
27.08.2007 22:56 14,4 C 83 % 1016,5 hPa 0,0 l/m 17,0 km/h (3 Bft) N 10 0 min 0 W/m 11,5 C 9,8 C 17,0 km/h (3 Bft)
27.08.2007 23:01 14,4 C 82 % 1016,5 hPa 0,0 l/m 24,2 km/h (4 Bft) N 10 0 min 0 W/m 11,4 C 8,0 C 24,2 km/h (4 Bft)
27.08.2007 23:06 14,5 C 81 % 1016,5 hPa 0,0 l/m 33,2 km/h (5 Bft) N 10 0 min 0 W/m 11,3 C 6,5 C 33,2 km/h (5 Bft)
27.08.2007 23:11 14,4 C 81 % 1016,5 hPa 0,0 l/m 23,9 km/h (4 Bft) N 10 0 min 0 W/m 11,2 C 8,0 C 23,9 km/h (4 Bft)
27.08.2007 23:16 14,4 C 80 % 1016,5 hPa 0,0 l/m 22,1 km/h (4 Bft) N 355 0 min 0 W/m 11,0 C 8,4 C 22,1 km/h (4 Bft)
27.08.2007 23:21 14,5 C 79 % 1016,5 hPa 0,0 l/m 31,4 km/h (5 Bft) N 5 0 min 0 W/m 10,9 C 6,8 C 31,4 km/h (5 Bft)
27.08.2007 23:26 14,6 C 76 % 1016,5 hPa 0,0 l/m 31,5 km/h (5 Bft) N 5 0 min 0 W/m 10,4 C 6,9 C 31,5 km/h (5 Bft)
27.08.2007 23:31 14,6 C 76 % 1016,5 hPa 0,0 l/m 31,1 km/h (5 Bft) N-NO 20 0 min 0 W/m 10,4 C 6,9 C 31,1 km/h (5 Bft)
27.08.2007 23:36 14,6 C 75 % 1016,5 hPa 0,0 l/m 23,8 km/h (4 Bft) N 5 0 min 0 W/m 10,2 C 8,3 C 23,8 km/h (4 Bft)
27.08.2007 23:41 14,6 C 72 % 1016,5 hPa 0,0 l/m 24,0 km/h (4 Bft) N-NO 25 0 min 0 W/m 9,6 C 8,3 C 24,0 km/h (4 Bft)
27.08.2007 23:46 14,6 C 71 % 1016,5 hPa 0,0 l/m 30,6 km/h (5 Bft) N 350 0 min 0 W/m 9,4 C 7,0 C 30,6 km/h (5 Bft)
27.08.2007 23:51 14,7 C 70 % 1016,5 hPa 0,0 l/m 28,1 km/h (5 Bft) N 360 0 min 0 W/m 9,3 C 7,6 C 28,1 km/h (5 Bft)
27.08.2007 23:56 14,7 C 69 % 1016,5 hPa 0,0 l/m 28,3 km/h (5 Bft) N 355 0 min 0 W/m 9,1 C 7,6 C 28,3 km/h (5 Bft)
_ Min-Zeit 22:21 00:20 18:55 - 09:50 - - - - 00:20 23:06 09:50
Minimum _ 13,9 C 57 % 1016,5 hPa - 2,1 km/h (1 Bft) - - - - 7,6 C 6,5 C 2,1 km/h (1 Bft)
_ Max-Zeit 16:30 22:16 00:00 21:30 19:00 - - 00:00 00:00 13:00 10:00 19:00
Maximum _ 18,9 C 89 % 1022,5 hPa 0,9 l/m 43,9 km/h
NW (6 Bft)
- - 0 min 0 W/m 12,6 C 15,9 C 43,9 km/h
NW (6 Bft)
Durchschnitt _ 16,3 C 69 % 1019,2 hPa #2,1 l/m 24,9 km/h (4 Bft) NW - #0 min. 0 W/m 10,5 C 10,6 C 24,9 km/h (4 Bft)
copyright by Holger Just